sensor_id;sensor_type;location;lat;lon;timestamp;temperature;humidity
66710;DHT22;53624;0.000;0.000;2024-02-21T00:02:08;11.30;99.90
66710;DHT22;53624;0.000;0.000;2024-02-21T00:04:35;11.30;99.90
66710;DHT22;53624;0.000;0.000;2024-02-21T00:07:05;11.30;99.90
66710;DHT22;53624;0.000;0.000;2024-02-21T00:09:33;11.30;99.90
66710;DHT22;53624;0.000;0.000;2024-02-21T00:12:00;11.30;99.90
66710;DHT22;53624;0.000;0.000;2024-02-21T00:14:29;11.30;99.90
66710;DHT22;53624;0.000;0.000;2024-02-21T00:16:56;11.20;99.90
66710;DHT22;53624;0.000;0.000;2024-02-21T00:19:23;11.20;99.90
66710;DHT22;53624;0.000;0.000;2024-02-21T00:21:50;11.20;99.90
66710;DHT22;53624;0.000;0.000;2024-02-21T00:24:17;11.20;99.90
66710;DHT22;53624;0.000;0.000;2024-02-21T00:26:46;11.20;99.90
66710;DHT22;53624;0.000;0.000;2024-02-21T00:29:13;11.20;99.90
66710;DHT22;53624;0.000;0.000;2024-02-21T00:31:40;11.20;99.90
66710;DHT22;53624;0.000;0.000;2024-02-21T00:34:07;11.10;99.90
66710;DHT22;53624;0.000;0.000;2024-02-21T00:36:34;11.10;99.90
66710;DHT22;53624;0.000;0.000;2024-02-21T00:39:02;11.10;99.90
66710;DHT22;53624;0.000;0.000;2024-02-21T00:41:29;11.10;99.90
66710;DHT22;53624;0.000;0.000;2024-02-21T00:43:57;11.10;99.90
66710;DHT22;53624;0.000;0.000;2024-02-21T00:46:24;11.10;99.90
66710;DHT22;53624;0.000;0.000;2024-02-21T00:48:52;11.10;99.90
66710;DHT22;53624;0.000;0.000;2024-02-21T00:51:19;11.10;99.90
66710;DHT22;53624;0.000;0.000;2024-02-21T00:53:46;11.10;99.90
66710;DHT22;53624;0.000;0.000;2024-02-21T00:56:13;11.10;99.90
66710;DHT22;53624;0.000;0.000;2024-02-21T00:58:40;11.10;99.90
66710;DHT22;53624;0.000;0.000;2024-02-21T01:01:09;11.00;99.90
66710;DHT22;53624;0.000;0.000;2024-02-21T01:03:39;11.00;99.90
66710;DHT22;53624;0.000;0.000;2024-02-21T01:06:06;11.00;99.90
66710;DHT22;53624;0.000;0.000;2024-02-21T01:08:33;11.00;99.90
66710;DHT22;53624;0.000;0.000;2024-02-21T01:11:00;11.00;99.90
66710;DHT22;53624;0.000;0.000;2024-02-21T01:13:27;11.00;99.90
66710;DHT22;53624;0.000;0.000;2024-02-21T01:15:55;11.00;99.90
66710;DHT22;53624;0.000;0.000;2024-02-21T01:18:23;11.00;99.90
66710;DHT22;53624;0.000;0.000;2024-02-21T01:20:51;11.00;99.90
66710;DHT22;53624;0.000;0.000;2024-02-21T01:23:18;11.00;99.90
66710;DHT22;53624;0.000;0.000;2024-02-21T01:25:45;11.00;99.90
66710;DHT22;53624;0.000;0.000;2024-02-21T01:28:12;11.00;99.90
66710;DHT22;53624;0.000;0.000;2024-02-21T01:30:39;11.00;99.90
66710;DHT22;53624;0.000;0.000;2024-02-21T01:33:06;10.90;99.90
66710;DHT22;53624;0.000;0.000;2024-02-21T01:35:35;10.90;99.90
66710;DHT22;53624;0.000;0.000;2024-02-21T01:38:02;10.90;99.90
66710;DHT22;53624;0.000;0.000;2024-02-21T01:40:30;10.90;99.90
66710;DHT22;53624;0.000;0.000;2024-02-21T01:42:57;10.90;99.90
66710;DHT22;53624;0.000;0.000;2024-02-21T01:45:24;10.90;99.90
66710;DHT22;53624;0.000;0.000;2024-02-21T01:47:51;10.90;99.90
66710;DHT22;53624;0.000;0.000;2024-02-21T01:50:19;10.90;99.90
66710;DHT22;53624;0.000;0.000;2024-02-21T01:52:48;10.90;99.90
66710;DHT22;53624;0.000;0.000;2024-02-21T01:55:15;10.90;99.90
66710;DHT22;53624;0.000;0.000;2024-02-21T01:57:43;10.90;99.90
66710;DHT22;53624;0.000;0.000;2024-02-21T02:00:13;10.90;99.90
66710;DHT22;53624;0.000;0.000;2024-02-21T02:02:41;10.90;99.90
66710;DHT22;53624;0.000;0.000;2024-02-21T02:05:08;10.90;99.90
66710;DHT22;53624;0.000;0.000;2024-02-21T02:07:36;10.90;99.90
66710;DHT22;53624;0.000;0.000;2024-02-21T02:10:05;10.90;99.90
66710;DHT22;53624;0.000;0.000;2024-02-21T02:12:32;10.80;99.90
66710;DHT22;53624;0.000;0.000;2024-02-21T02:15:00;10.90;99.90
66710;DHT22;53624;0.000;0.000;2024-02-21T02:17:27;10.80;99.90
66710;DHT22;53624;0.000;0.000;2024-02-21T02:19:54;10.90;99.90
66710;DHT22;53624;0.000;0.000;2024-02-21T02:22:22;10.80;99.90
66710;DHT22;53624;0.000;0.000;2024-02-21T02:24:50;10.80;99.90
66710;DHT22;53624;0.000;0.000;2024-02-21T02:27:18;10.80;99.90
66710;DHT22;53624;0.000;0.000;2024-02-21T02:29:45;10.80;99.90
66710;DHT22;53624;0.000;0.000;2024-02-21T02:32:12;10.80;99.90
66710;DHT22;53624;0.000;0.000;2024-02-21T02:34:39;10.80;99.90
66710;DHT22;53624;0.000;0.000;2024-02-21T02:37:06;10.80;99.90
66710;DHT22;53624;0.000;0.000;2024-02-21T02:39:34;10.80;99.90
66710;DHT22;53624;0.000;0.000;2024-02-21T02:42:03;10.80;99.90
66710;DHT22;53624;0.000;0.000;2024-02-21T02:44:30;10.80;99.90
66710;DHT22;53624;0.000;0.000;2024-02-21T02:46:57;10.80;99.90
66710;DHT22;53624;0.000;0.000;2024-02-21T02:49:24;10.80;99.90
66710;DHT22;53624;0.000;0.000;2024-02-21T02:51:51;10.80;99.90
66710;DHT22;53624;0.000;0.000;2024-02-21T02:54:18;10.80;99.90
66710;DHT22;53624;0.000;0.000;2024-02-21T02:56:46;10.80;99.90
66710;DHT22;53624;0.000;0.000;2024-02-21T02:59:14;10.80;99.90
66710;DHT22;53624;0.000;0.000;2024-02-21T03:01:41;10.80;99.90
66710;DHT22;53624;0.000;0.000;2024-02-21T03:04:08;10.80;99.90
66710;DHT22;53624;0.000;0.000;2024-02-21T03:06:36;10.80;99.90
66710;DHT22;53624;0.000;0.000;2024-02-21T03:09:03;10.80;99.90
66710;DHT22;53624;0.000;0.000;2024-02-21T03:11:35;10.80;99.90
66710;DHT22;53624;0.000;0.000;2024-02-21T03:14:02;10.80;99.90
66710;DHT22;53624;0.000;0.000;2024-02-21T03:16:31;10.80;99.90
66710;DHT22;53624;0.000;0.000;2024-02-21T03:18:58;10.80;99.90
66710;DHT22;53624;0.000;0.000;2024-02-21T03:21:25;10.70;99.90
66710;DHT22;53624;0.000;0.000;2024-02-21T03:23:52;10.70;99.90
66710;DHT22;53624;0.000;0.000;2024-02-21T03:26:19;10.70;99.90
66710;DHT22;53624;0.000;0.000;2024-02-21T03:28:46;10.70;99.90
66710;DHT22;53624;0.000;0.000;2024-02-21T03:31:14;10.70;99.90
66710;DHT22;53624;0.000;0.000;2024-02-21T03:33:43;10.70;99.90
66710;DHT22;53624;0.000;0.000;2024-02-21T03:36:12;10.70;99.90
66710;DHT22;53624;0.000;0.000;2024-02-21T03:38:40;10.70;99.90
66710;DHT22;53624;0.000;0.000;2024-02-21T03:41:07;10.70;99.90
66710;DHT22;53624;0.000;0.000;2024-02-21T03:43:34;10.70;99.90
66710;DHT22;53624;0.000;0.000;2024-02-21T03:46:01;10.70;99.90
66710;DHT22;53624;0.000;0.000;2024-02-21T03:48:28;10.70;99.90
66710;DHT22;53624;0.000;0.000;2024-02-21T03:50:57;10.70;99.90
66710;DHT22;53624;0.000;0.000;2024-02-21T03:53:24;10.70;99.90
66710;DHT22;53624;0.000;0.000;2024-02-21T03:55:52;10.70;99.90
66710;DHT22;53624;0.000;0.000;2024-02-21T03:58:19;10.60;99.90
66710;DHT22;53624;0.000;0.000;2024-02-21T04:00:46;10.70;99.90
66710;DHT22;53624;0.000;0.000;2024-02-21T04:03:13;10.60;99.90
66710;DHT22;53624;0.000;0.000;2024-02-21T04:05:40;10.60;99.90
66710;DHT22;53624;0.000;0.000;2024-02-21T04:08:09;10.60;99.90
66710;DHT22;53624;0.000;0.000;2024-02-21T04:10:36;10.60;99.90
66710;DHT22;53624;0.000;0.000;2024-02-21T04:13:03;10.60;99.90
66710;DHT22;53624;0.000;0.000;2024-02-21T04:15:31;10.60;99.90
66710;DHT22;53624;0.000;0.000;2024-02-21T04:17:58;10.60;99.90
66710;DHT22;53624;0.000;0.000;2024-02-21T04:20:25;10.60;99.90
66710;DHT22;53624;0.000;0.000;2024-02-21T04:22:52;10.60;99.90
66710;DHT22;53624;0.000;0.000;2024-02-21T04:25:21;10.60;99.90
66710;DHT22;53624;0.000;0.000;2024-02-21T04:27:48;10.60;99.90
66710;DHT22;53624;0.000;0.000;2024-02-21T04:30:15;10.60;99.90
66710;DHT22;53624;0.000;0.000;2024-02-21T04:32:42;10.60;99.90
66710;DHT22;53624;0.000;0.000;2024-02-21T04:35:10;10.50;99.90
66710;DHT22;53624;0.000;0.000;2024-02-21T04:37:37;10.50;99.90
66710;DHT22;53624;0.000;0.000;2024-02-21T04:40:04;10.50;99.90
66710;DHT22;53624;0.000;0.000;2024-02-21T04:42:33;10.50;99.90
66710;DHT22;53624;0.000;0.000;2024-02-21T04:45:00;10.50;99.90
66710;DHT22;53624;0.000;0.000;2024-02-21T04:47:27;10.50;99.90
66710;DHT22;53624;0.000;0.000;2024-02-21T04:49:55;10.50;99.90
66710;DHT22;53624;0.000;0.000;2024-02-21T04:52:22;10.50;99.90
66710;DHT22;53624;0.000;0.000;2024-02-21T04:54:49;10.50;99.90
66710;DHT22;53624;0.000;0.000;2024-02-21T04:57:17;10.50;99.90
66710;DHT22;53624;0.000;0.000;2024-02-21T04:59:46;10.50;99.90
66710;DHT22;53624;0.000;0.000;2024-02-21T05:02:13;10.40;99.90
66710;DHT22;53624;0.000;0.000;2024-02-21T05:04:41;10.50;99.90
66710;DHT22;53624;0.000;0.000;2024-02-21T05:07:09;10.40;99.90
66710;DHT22;53624;0.000;0.000;2024-02-21T05:09:37;10.40;99.90
66710;DHT22;53624;0.000;0.000;2024-02-21T05:12:04;10.40;99.90
66710;DHT22;53624;0.000;0.000;2024-02-21T05:14:32;10.40;99.90
66710;DHT22;53624;0.000;0.000;2024-02-21T05:17:00;10.40;99.90
66710;DHT22;53624;0.000;0.000;2024-02-21T05:19:27;10.40;99.90
66710;DHT22;53624;0.000;0.000;2024-02-21T05:21:55;10.40;99.90
66710;DHT22;53624;0.000;0.000;2024-02-21T05:24:22;10.40;99.90
66710;DHT22;53624;0.000;0.000;2024-02-21T05:26:49;10.40;99.90
66710;DHT22;53624;0.000;0.000;2024-02-21T05:29:16;10.40;99.90
66710;DHT22;53624;0.000;0.000;2024-02-21T05:31:54;10.40;99.90
66710;DHT22;53624;0.000;0.000;2024-02-21T05:34:23;10.40;99.90
66710;DHT22;53624;0.000;0.000;2024-02-21T05:36:51;10.40;99.90
66710;DHT22;53624;0.000;0.000;2024-02-21T05:39:18;10.40;99.90
66710;DHT22;53624;0.000;0.000;2024-02-21T05:41:45;10.40;99.90
66710;DHT22;53624;0.000;0.000;2024-02-21T05:44:12;10.30;99.90
66710;DHT22;53624;0.000;0.000;2024-02-21T05:46:39;10.40;99.90
66710;DHT22;53624;0.000;0.000;2024-02-21T05:49:07;10.30;99.90
66710;DHT22;53624;0.000;0.000;2024-02-21T05:51:35;10.30;99.90
66710;DHT22;53624;0.000;0.000;2024-02-21T05:54:02;10.30;99.90
66710;DHT22;53624;0.000;0.000;2024-02-21T05:56:29;10.30;99.90
66710;DHT22;53624;0.000;0.000;2024-02-21T05:58:57;10.30;99.90
66710;DHT22;53624;0.000;0.000;2024-02-21T06:01:24;10.30;99.90
66710;DHT22;53624;0.000;0.000;2024-02-21T06:03:51;10.30;99.90
66710;DHT22;53624;0.000;0.000;2024-02-21T06:06:18;10.30;99.90
66710;DHT22;53624;0.000;0.000;2024-02-21T06:08:49;10.30;99.90
66710;DHT22;53624;0.000;0.000;2024-02-21T06:11:16;10.30;99.90
66710;DHT22;53624;0.000;0.000;2024-02-21T06:13:43;10.30;99.90
66710;DHT22;53624;0.000;0.000;2024-02-21T06:16:10;10.30;99.90
66710;DHT22;53624;0.000;0.000;2024-02-21T06:18:38;10.30;99.90
66710;DHT22;53624;0.000;0.000;2024-02-21T06:21:05;10.30;99.90
66710;DHT22;53624;0.000;0.000;2024-02-21T06:23:33;10.30;99.90
66710;DHT22;53624;0.000;0.000;2024-02-21T06:26:01;10.30;99.90
66710;DHT22;53624;0.000;0.000;2024-02-21T06:28:28;10.30;99.90
66710;DHT22;53624;0.000;0.000;2024-02-21T06:30:55;10.30;99.90
66710;DHT22;53624;0.000;0.000;2024-02-21T06:33:23;10.30;99.90
66710;DHT22;53624;0.000;0.000;2024-02-21T06:35:50;10.30;99.90
66710;DHT22;53624;0.000;0.000;2024-02-21T06:38:19;10.30;99.90
66710;DHT22;53624;0.000;0.000;2024-02-21T06:40:47;10.30;99.90
66710;DHT22;53624;0.000;0.000;2024-02-21T06:43:19;10.30;99.90
66710;DHT22;53624;0.000;0.000;2024-02-21T06:45:47;10.30;99.90
66710;DHT22;53624;0.000;0.000;2024-02-21T06:48:17;10.30;99.90
66710;DHT22;53624;0.000;0.000;2024-02-21T06:50:45;10.30;99.90
66710;DHT22;53624;0.000;0.000;2024-02-21T06:53:12;10.30;99.90
66710;DHT22;53624;0.000;0.000;2024-02-21T06:55:39;10.30;99.90
66710;DHT22;53624;0.000;0.000;2024-02-21T06:58:06;10.30;99.90
66710;DHT22;53624;0.000;0.000;2024-02-21T07:00:42;10.30;99.90
66710;DHT22;53624;0.000;0.000;2024-02-21T07:03:09;10.30;99.90
66710;DHT22;53624;0.000;0.000;2024-02-21T07:05:36;10.30;99.90
66710;DHT22;53624;0.000;0.000;2024-02-21T07:08:03;10.30;99.90
66710;DHT22;53624;0.000;0.000;2024-02-21T07:10:30;10.30;99.90
66710;DHT22;53624;0.000;0.000;2024-02-21T07:12:58;10.30;99.90
66710;DHT22;53624;0.000;0.000;2024-02-21T07:15:26;10.40;99.90
66710;DHT22;53624;0.000;0.000;2024-02-21T07:17:55;10.40;99.90
66710;DHT22;53624;0.000;0.000;2024-02-21T07:20:22;10.40;99.90
66710;DHT22;53624;0.000;0.000;2024-02-21T07:22:50;10.40;99.90
66710;DHT22;53624;0.000;0.000;2024-02-21T07:25:17;10.40;99.90
66710;DHT22;53624;0.000;0.000;2024-02-21T07:27:44;10.40;99.90
66710;DHT22;53624;0.000;0.000;2024-02-21T07:30:12;10.40;99.90
66710;DHT22;53624;0.000;0.000;2024-02-21T07:32:39;10.40;99.90
66710;DHT22;53624;0.000;0.000;2024-02-21T07:35:08;10.50;99.90
66710;DHT22;53624;0.000;0.000;2024-02-21T07:37:36;10.50;99.90
66710;DHT22;53624;0.000;0.000;2024-02-21T07:40:05;10.50;99.90
66710;DHT22;53624;0.000;0.000;2024-02-21T07:42:32;10.50;99.90
66710;DHT22;53624;0.000;0.000;2024-02-21T07:44:59;10.50;99.90
66710;DHT22;53624;0.000;0.000;2024-02-21T07:47:27;10.60;99.90
66710;DHT22;53624;0.000;0.000;2024-02-21T07:49:54;10.60;99.90
66710;DHT22;53624;0.000;0.000;2024-02-21T07:52:22;10.60;99.90
66710;DHT22;53624;0.000;0.000;2024-02-21T07:54:50;10.70;99.90
66710;DHT22;53624;0.000;0.000;2024-02-21T07:57:17;10.70;99.90
66710;DHT22;53624;0.000;0.000;2024-02-21T07:59:45;10.70;99.90
66710;DHT22;53624;0.000;0.000;2024-02-21T08:02:13;10.70;99.90
66710;DHT22;53624;0.000;0.000;2024-02-21T08:04:40;10.70;99.90
66710;DHT22;53624;0.000;0.000;2024-02-21T08:07:07;10.80;99.90
66710;DHT22;53624;0.000;0.000;2024-02-21T08:09:36;10.80;99.90
66710;DHT22;53624;0.000;0.000;2024-02-21T08:12:04;10.90;99.90
66710;DHT22;53624;0.000;0.000;2024-02-21T08:14:31;10.90;99.90
66710;DHT22;53624;0.000;0.000;2024-02-21T08:16:59;10.90;99.90
66710;DHT22;53624;0.000;0.000;2024-02-21T08:19:26;11.00;99.90
66710;DHT22;53624;0.000;0.000;2024-02-21T08:21:53;11.00;99.90
66710;DHT22;53624;0.000;0.000;2024-02-21T08:24:20;11.00;99.90
66710;DHT22;53624;0.000;0.000;2024-02-21T08:26:50;11.10;99.90
66710;DHT22;53624;0.000;0.000;2024-02-21T08:29:17;11.10;99.90
66710;DHT22;53624;0.000;0.000;2024-02-21T08:31:44;11.20;99.90
66710;DHT22;53624;0.000;0.000;2024-02-21T08:34:11;11.20;99.90
66710;DHT22;53624;0.000;0.000;2024-02-21T08:36:39;11.20;99.90
66710;DHT22;53624;0.000;0.000;2024-02-21T08:39:06;11.30;99.90
66710;DHT22;53624;0.000;0.000;2024-02-21T08:41:35;11.30;99.90
66710;DHT22;53624;0.000;0.000;2024-02-21T08:44:04;11.30;99.90
66710;DHT22;53624;0.000;0.000;2024-02-21T08:46:31;11.40;99.90
66710;DHT22;53624;0.000;0.000;2024-02-21T08:48:58;11.40;99.90
66710;DHT22;53624;0.000;0.000;2024-02-21T08:51:25;11.40;99.90
66710;DHT22;53624;0.000;0.000;2024-02-21T08:53:52;11.50;99.90
66710;DHT22;53624;0.000;0.000;2024-02-21T08:56:20;11.50;99.90
66710;DHT22;53624;0.000;0.000;2024-02-21T08:58:47;11.50;99.90
66710;DHT22;53624;0.000;0.000;2024-02-21T09:01:15;11.60;99.90
66710;DHT22;53624;0.000;0.000;2024-02-21T09:03:43;11.60;99.90
66710;DHT22;53624;0.000;0.000;2024-02-21T09:06:10;11.70;99.90
66710;DHT22;53624;0.000;0.000;2024-02-21T09:08:38;11.70;99.90
66710;DHT22;53624;0.000;0.000;2024-02-21T09:11:06;11.80;99.90
66710;DHT22;53624;0.000;0.000;2024-02-21T09:13:33;11.80;99.90
66710;DHT22;53624;0.000;0.000;2024-02-21T09:16:00;11.90;99.90
66710;DHT22;53624;0.000;0.000;2024-02-21T09:18:29;11.90;99.90
66710;DHT22;53624;0.000;0.000;2024-02-21T09:20:56;12.10;99.90
66710;DHT22;53624;0.000;0.000;2024-02-21T09:23:23;12.20;99.90
66710;DHT22;53624;0.000;0.000;2024-02-21T09:25:51;12.30;99.90
66710;DHT22;53624;0.000;0.000;2024-02-21T09:28:18;12.50;99.90
66710;DHT22;53624;0.000;0.000;2024-02-21T09:30:45;12.60;99.90
66710;DHT22;53624;0.000;0.000;2024-02-21T09:33:12;12.70;99.90
66710;DHT22;53624;0.000;0.000;2024-02-21T09:35:41;12.90;99.90
66710;DHT22;53624;0.000;0.000;2024-02-21T09:38:08;13.00;99.90
66710;DHT22;53624;0.000;0.000;2024-02-21T09:40:36;13.30;99.90
66710;DHT22;53624;0.000;0.000;2024-02-21T09:43:04;13.40;99.90
66710;DHT22;53624;0.000;0.000;2024-02-21T09:45:32;13.70;99.90
66710;DHT22;53624;0.000;0.000;2024-02-21T09:48:10;13.80;99.90
66710;DHT22;53624;0.000;0.000;2024-02-21T09:50:43;14.00;99.90
66710;DHT22;53624;0.000;0.000;2024-02-21T09:53:11;14.20;99.90
66710;DHT22;53624;0.000;0.000;2024-02-21T09:55:39;14.50;99.90
66710;DHT22;53624;0.000;0.000;2024-02-21T09:58:07;14.70;99.90
66710;DHT22;53624;0.000;0.000;2024-02-21T10:00:35;15.00;99.90
66710;DHT22;53624;0.000;0.000;2024-02-21T10:03:02;15.20;99.90
66710;DHT22;53624;0.000;0.000;2024-02-21T10:05:33;15.40;99.80
66710;DHT22;53624;0.000;0.000;2024-02-21T10:08:03;15.60;99.60
66710;DHT22;53624;0.000;0.000;2024-02-21T10:10:33;15.70;99.50
66710;DHT22;53624;0.000;0.000;2024-02-21T10:13:07;16.00;99.30
66710;DHT22;53624;0.000;0.000;2024-02-21T10:15:34;16.20;99.10
66710;DHT22;53624;0.000;0.000;2024-02-21T10:18:01;16.40;99.00
66710;DHT22;53624;0.000;0.000;2024-02-21T10:20:29;16.60;98.80
66710;DHT22;53624;0.000;0.000;2024-02-21T10:23:04;16.70;98.70
66710;DHT22;53624;0.000;0.000;2024-02-21T10:25:34;16.80;98.70
66710;DHT22;53624;0.000;0.000;2024-02-21T10:28:01;16.90;98.50
66710;DHT22;53624;0.000;0.000;2024-02-21T10:30:29;17.00;98.50
66710;DHT22;53624;0.000;0.000;2024-02-21T10:32:56;17.20;98.50
66710;DHT22;53624;0.000;0.000;2024-02-21T10:35:27;17.20;98.40
66710;DHT22;53624;0.000;0.000;2024-02-21T10:37:55;17.30;98.40
66710;DHT22;53624;0.000;0.000;2024-02-21T10:40:27;17.30;98.50
66710;DHT22;53624;0.000;0.000;2024-02-21T10:42:56;17.40;98.40
66710;DHT22;53624;0.000;0.000;2024-02-21T10:45:26;17.50;98.40
66710;DHT22;53624;0.000;0.000;2024-02-21T10:47:55;17.50;98.30
66710;DHT22;53624;0.000;0.000;2024-02-21T10:50:23;17.60;98.40
66710;DHT22;53624;0.000;0.000;2024-02-21T10:52:55;17.70;98.40
66710;DHT22;53624;0.000;0.000;2024-02-21T10:55:26;17.70;98.30
66710;DHT22;53624;0.000;0.000;2024-02-21T10:57:55;17.80;98.30
66710;DHT22;53624;0.000;0.000;2024-02-21T11:00:22;17.90;98.30
66710;DHT22;53624;0.000;0.000;2024-02-21T11:02:56;17.90;98.20
66710;DHT22;53624;0.000;0.000;2024-02-21T11:05:23;18.00;98.20
66710;DHT22;53624;0.000;0.000;2024-02-21T11:07:51;18.10;97.90
66710;DHT22;53624;0.000;0.000;2024-02-21T11:10:22;18.30;97.60
66710;DHT22;53624;0.000;0.000;2024-02-21T11:12:52;18.50;97.00
66710;DHT22;53624;0.000;0.000;2024-02-21T11:15:20;18.60;96.90
66710;DHT22;53624;0.000;0.000;2024-02-21T11:17:55;18.50;97.00
66710;DHT22;53624;0.000;0.000;2024-02-21T11:20:31;18.50;97.00
66710;DHT22;53624;0.000;0.000;2024-02-21T11:22:59;18.60;97.00
66710;DHT22;53624;0.000;0.000;2024-02-21T11:25:27;18.70;97.10
66710;DHT22;53624;0.000;0.000;2024-02-21T11:27:59;18.80;97.00
66710;DHT22;53624;0.000;0.000;2024-02-21T11:30:29;19.00;96.90
66710;DHT22;53624;0.000;0.000;2024-02-21T11:33:00;19.30;96.70
66710;DHT22;53624;0.000;0.000;2024-02-21T11:35:30;19.60;96.30
66710;DHT22;53624;0.000;0.000;2024-02-21T11:38:07;19.80;95.90
66710;DHT22;53624;0.000;0.000;2024-02-21T11:40:34;19.90;95.70
66710;DHT22;53624;0.000;0.000;2024-02-21T11:43:02;20.00;95.60
66710;DHT22;53624;0.000;0.000;2024-02-21T11:45:30;20.10;95.50
66710;DHT22;53624;0.000;0.000;2024-02-21T11:47:59;20.30;95.20
66710;DHT22;53624;0.000;0.000;2024-02-21T11:50:29;20.40;94.80
66710;DHT22;53624;0.000;0.000;2024-02-21T11:52:57;20.30;94.60
66710;DHT22;53624;0.000;0.000;2024-02-21T11:55:24;20.10;94.90
66710;DHT22;53624;0.000;0.000;2024-02-21T11:57:52;19.80;95.00
66710;DHT22;53624;0.000;0.000;2024-02-21T12:00:19;19.80;95.10
66710;DHT22;53624;0.000;0.000;2024-02-21T12:02:49;19.90;94.90
66710;DHT22;53624;0.000;0.000;2024-02-21T12:05:16;19.80;94.80
66710;DHT22;53624;0.000;0.000;2024-02-21T12:07:45;19.70;94.90
66710;DHT22;53624;0.000;0.000;2024-02-21T12:10:13;19.70;94.90
66710;DHT22;53624;0.000;0.000;2024-02-21T12:12:40;19.80;94.60
66710;DHT22;53624;0.000;0.000;2024-02-21T12:15:07;19.90;94.40
66710;DHT22;53624;0.000;0.000;2024-02-21T12:17:35;19.90;94.40
66710;DHT22;53624;0.000;0.000;2024-02-21T12:20:04;20.00;94.20
66710;DHT22;53624;0.000;0.000;2024-02-21T12:22:35;20.00;94.10
66710;DHT22;53624;0.000;0.000;2024-02-21T12:25:03;20.00;94.20
66710;DHT22;53624;0.000;0.000;2024-02-21T12:27:33;20.00;94.30
66710;DHT22;53624;0.000;0.000;2024-02-21T12:30:00;20.00;94.30
66710;DHT22;53624;0.000;0.000;2024-02-21T12:32:35;20.00;94.50
66710;DHT22;53624;0.000;0.000;2024-02-21T12:35:04;20.00;94.70
66710;DHT22;53624;0.000;0.000;2024-02-21T12:37:32;20.00;94.70
66710;DHT22;53624;0.000;0.000;2024-02-21T12:39:59;20.00;94.80
66710;DHT22;53624;0.000;0.000;2024-02-21T12:42:26;20.00;94.80
66710;DHT22;53624;0.000;0.000;2024-02-21T12:44:53;19.90;95.00
66710;DHT22;53624;0.000;0.000;2024-02-21T12:47:21;19.80;95.30
66710;DHT22;53624;0.000;0.000;2024-02-21T12:49:50;19.70;95.40
66710;DHT22;53624;0.000;0.000;2024-02-21T12:52:19;19.70;95.60
66710;DHT22;53624;0.000;0.000;2024-02-21T12:54:46;19.60;95.70
66710;DHT22;53624;0.000;0.000;2024-02-21T12:57:13;19.40;95.90
66710;DHT22;53624;0.000;0.000;2024-02-21T12:59:40;19.30;96.20
66710;DHT22;53624;0.000;0.000;2024-02-21T13:02:07;19.20;96.40
66710;DHT22;53624;0.000;0.000;2024-02-21T13:04:35;19.20;96.60
66710;DHT22;53624;0.000;0.000;2024-02-21T13:07:06;19.10;96.80
66710;DHT22;53624;0.000;0.000;2024-02-21T13:09:35;19.00;96.90
66710;DHT22;53624;0.000;0.000;2024-02-21T13:12:02;19.00;97.00
66710;DHT22;53624;0.000;0.000;2024-02-21T13:14:29;19.00;97.20
66710;DHT22;53624;0.000;0.000;2024-02-21T13:16:58;18.90;97.30
66710;DHT22;53624;0.000;0.000;2024-02-21T13:19:26;18.90;97.30
66710;DHT22;53624;0.000;0.000;2024-02-21T13:21:53;18.80;97.50
66710;DHT22;53624;0.000;0.000;2024-02-21T13:24:20;18.70;97.60
66710;DHT22;53624;0.000;0.000;2024-02-21T13:26:48;18.70;97.70
66710;DHT22;53624;0.000;0.000;2024-02-21T13:29:16;18.60;98.10
66710;DHT22;53624;0.000;0.000;2024-02-21T13:31:43;18.60;98.00
66710;DHT22;53624;0.000;0.000;2024-02-21T13:34:11;18.50;98.10
66710;DHT22;53624;0.000;0.000;2024-02-21T13:36:38;18.40;98.10
66710;DHT22;53624;0.000;0.000;2024-02-21T13:39:05;18.40;98.20
66710;DHT22;53624;0.000;0.000;2024-02-21T13:41:33;18.30;98.20
66710;DHT22;53624;0.000;0.000;2024-02-21T13:44:02;18.30;98.30
66710;DHT22;53624;0.000;0.000;2024-02-21T13:46:29;18.30;98.30
66710;DHT22;53624;0.000;0.000;2024-02-21T13:49:02;18.20;98.40
66710;DHT22;53624;0.000;0.000;2024-02-21T13:51:30;18.20;98.40
66710;DHT22;53624;0.000;0.000;2024-02-21T13:53:57;18.20;98.30
66710;DHT22;53624;0.000;0.000;2024-02-21T13:56:25;18.20;98.20
66710;DHT22;53624;0.000;0.000;2024-02-21T13:58:52;18.30;98.10
66710;DHT22;53624;0.000;0.000;2024-02-21T14:01:21;18.40;97.90
66710;DHT22;53624;0.000;0.000;2024-02-21T14:03:48;18.50;97.70
66710;DHT22;53624;0.000;0.000;2024-02-21T14:06:15;18.50;97.50
66710;DHT22;53624;0.000;0.000;2024-02-21T14:08:43;18.50;97.50
66710;DHT22;53624;0.000;0.000;2024-02-21T14:11:10;18.50;97.50
66710;DHT22;53624;0.000;0.000;2024-02-21T14:13:37;18.40;97.60
66710;DHT22;53624;0.000;0.000;2024-02-21T14:16:08;18.40;97.60
66710;DHT22;53624;0.000;0.000;2024-02-21T14:18:38;18.40;97.70
66710;DHT22;53624;0.000;0.000;2024-02-21T14:21:06;18.30;97.80
66710;DHT22;53624;0.000;0.000;2024-02-21T14:23:36;18.30;97.90
66710;DHT22;53624;0.000;0.000;2024-02-21T14:26:03;18.20;98.00
66710;DHT22;53624;0.000;0.000;2024-02-21T14:28:30;18.20;98.00
66710;DHT22;53624;0.000;0.000;2024-02-21T14:30:59;18.20;98.10
66710;DHT22;53624;0.000;0.000;2024-02-21T14:33:26;18.10;98.10
66710;DHT22;53624;0.000;0.000;2024-02-21T14:35:56;18.10;98.10
66710;DHT22;53624;0.000;0.000;2024-02-21T14:38:23;18.10;98.10
66710;DHT22;53624;0.000;0.000;2024-02-21T14:40:50;18.00;98.10
66710;DHT22;53624;0.000;0.000;2024-02-21T14:43:18;17.90;98.10
66710;DHT22;53624;0.000;0.000;2024-02-21T14:45:47;17.90;98.10
66710;DHT22;53624;0.000;0.000;2024-02-21T14:48:14;17.90;98.20
66710;DHT22;53624;0.000;0.000;2024-02-21T14:50:41;17.80;98.30
66710;DHT22;53624;0.000;0.000;2024-02-21T14:53:10;17.80;98.40
66710;DHT22;53624;0.000;0.000;2024-02-21T14:55:37;17.70;98.40
66710;DHT22;53624;0.000;0.000;2024-02-21T14:58:05;17.70;98.30
66710;DHT22;53624;0.000;0.000;2024-02-21T15:00:32;17.70;98.30
66710;DHT22;53624;0.000;0.000;2024-02-21T15:02:59;17.60;98.30
66710;DHT22;53624;0.000;0.000;2024-02-21T15:05:27;17.60;98.30
66710;DHT22;53624;0.000;0.000;2024-02-21T15:07:55;17.50;98.30
66710;DHT22;53624;0.000;0.000;2024-02-21T15:10:24;17.50;98.40
66710;DHT22;53624;0.000;0.000;2024-02-21T15:12:51;17.50;98.30
66710;DHT22;53624;0.000;0.000;2024-02-21T15:15:18;17.40;98.40
66710;DHT22;53624;0.000;0.000;2024-02-21T15:17:45;17.40;98.30
66710;DHT22;53624;0.000;0.000;2024-02-21T15:20:12;17.30;98.70
66710;DHT22;53624;0.000;0.000;2024-02-21T15:22:40;17.30;98.40
66710;DHT22;53624;0.000;0.000;2024-02-21T15:25:07;17.30;98.20
66710;DHT22;53624;0.000;0.000;2024-02-21T15:27:40;17.20;98.10
66710;DHT22;53624;0.000;0.000;2024-02-21T15:30:08;17.20;98.20
66710;DHT22;53624;0.000;0.000;2024-02-21T15:32:35;17.20;98.30
66710;DHT22;53624;0.000;0.000;2024-02-21T15:35:03;17.10;98.30
66710;DHT22;53624;0.000;0.000;2024-02-21T15:37:31;17.10;98.20
66710;DHT22;53624;0.000;0.000;2024-02-21T15:39:59;17.00;98.20
66710;DHT22;53624;0.000;0.000;2024-02-21T15:42:26;17.00;98.20
66710;DHT22;53624;0.000;0.000;2024-02-21T15:44:55;16.90;98.30
66710;DHT22;53624;0.000;0.000;2024-02-21T15:47:22;16.90;98.40
66710;DHT22;53624;0.000;0.000;2024-02-21T15:49:49;16.80;98.40